Time;durP1;ratioP1;P1;durP2;ratioP2;P2;SDS_P1;SDS_P2;PMS_P1;PMS_P2;Temp;Humidity;BMP_temperature;BMP_pressure;BME280_temperature;BME280_humidity;BME280_pressure;Samples;Min_cycle;Max_cycle;Signal;HPM_P1;HPM_P2
2023/07/19 00:01:33;;;;;;;5.47;2.47;;;;;;;31.04;28.42;97875.00;5030283;28;20040;-73
2023/07/19 00:03:59;;;;;;;6.38;2.65;;;;;;;30.90;29.08;97879.66;5015314;28;20033;-72
2023/07/19 00:06:24;;;;;;;4.38;2.67;;;;;;;31.23;28.62;97871.94;5015352;28;20045;-72
2023/07/19 00:08:50;;;;;;;5.80;2.60;;;;;;;30.37;29.41;97871.59;5023106;28;20029;-71
2023/07/19 00:11:15;;;;;;;5.43;2.85;;;;;;;31.66;28.81;97863.88;5032968;28;20037;-71
2023/07/19 00:13:41;;;;;;;5.00;2.90;;;;;;;31.11;29.70;97860.34;5032691;28;20025;-70
2023/07/19 00:16:06;;;;;;;5.57;3.00;;;;;;;31.03;28.89;97864.25;5032762;28;20034;-71
2023/07/19 00:18:31;;;;;;;4.20;2.50;;;;;;;30.25;29.37;97862.69;5015052;28;20078;-71
2023/07/19 00:20:57;;;;;;;4.53;2.40;;;;;;;31.52;27.11;97866.59;5031630;28;20041;-72
2023/07/19 00:23:22;;;;;;;4.32;2.42;;;;;;;31.39;28.43;97864.09;5027795;28;20026;-73
2023/07/19 00:25:48;;;;;;;4.47;2.38;;;;;;;30.68;29.17;97859.19;5028016;28;20045;-73
2023/07/19 00:28:13;;;;;;;3.65;2.70;;;;;;;31.52;28.38;97858.22;5032496;28;20114;-71
2023/07/19 00:30:38;;;;;;;5.20;2.63;;;;;;;30.77;29.55;97857.69;5031256;28;20758;-72
2023/07/19 00:33:04;;;;;;;6.00;2.70;;;;;;;30.84;29.37;97845.81;5032379;28;20029;-72
2023/07/19 00:35:30;;;;;;;5.57;2.97;;;;;;;29.83;30.29;97838.03;5014489;28;20514;-72
2023/07/19 00:37:56;;;;;;;3.92;2.80;;;;;;;29.11;32.72;97842.97;5011506;28;20026;-72
2023/07/19 00:40:22;;;;;;;4.70;2.85;;;;;;;28.65;33.58;97843.06;5023828;28;20511;-72
2023/07/19 00:42:47;;;;;;;3.95;2.50;;;;;;;29.48;32.36;97835.59;4994722;28;20133;-76
2023/07/19 00:45:14;;;;;;;8.57;3.28;;;;;;;29.21;32.75;97828.50;4994207;28;20033;-74
2023/07/19 00:47:39;;;;;;;5.80;3.05;;;;;;;29.65;32.70;97823.91;5000429;28;20029;-75
2023/07/19 00:50:06;;;;;;;6.95;2.83;;;;;;;29.72;32.74;97829.56;5010071;28;20095;-75
2023/07/19 00:52:32;;;;;;;4.03;2.50;;;;;;;31.18;29.59;97811.09;5014274;28;20372;-75
2023/07/19 00:54:58;;;;;;;4.25;2.70;;;;;;;31.79;28.72;97812.97;5017322;28;20116;-75
2023/07/19 00:57:23;;;;;;;5.65;3.00;;;;;;;31.84;28.50;97815.41;5014214;28;20032;-76
2023/07/19 00:59:48;;;;;;;5.60;2.85;;;;;;;31.59;29.19;97819.28;5015188;28;20038;-75
2023/07/19 01:02:14;;;;;;;5.20;2.60;;;;;;;30.58;30.49;97821.75;4984194;28;20028;-73
2023/07/19 01:04:39;;;;;;;5.20;3.08;;;;;;;31.60;29.23;97809.75;5026973;28;20096;-73
2023/07/19 01:07:05;;;;;;;4.15;2.67;;;;;;;31.67;29.19;97820.91;5010997;28;20030;-74
2023/07/19 01:09:31;;;;;;;8.65;2.40;;;;;;;31.23;29.76;97824.63;4992290;28;20124;-73
2023/07/19 01:11:56;;;;;;;5.85;3.20;;;;;;;29.43;33.02;97833.13;4994450;28;20064;-73
2023/07/19 01:14:21;;;;;;;5.88;2.80;;;;;;;31.74;29.43;97820.94;5010636;28;20504;-74
2023/07/19 01:16:47;;;;;;;5.10;2.63;;;;;;;29.56;32.13;97823.41;4994437;28;20084;-74
2023/07/19 01:19:14;;;;;;;5.50;2.97;;;;;;;28.69;34.40;97827.28;4994275;28;20038;-74
2023/07/19 01:21:40;;;;;;;8.50;2.95;;;;;;;29.98;31.54;97815.63;5016083;28;20435;-74
2023/07/19 01:24:06;;;;;;;6.15;2.63;;;;;;;30.64;31.15;97817.44;5025791;28;20029;-71
2023/07/19 01:26:32;;;;;;;3.75;2.30;;;;;;;30.35;31.23;97834.25;5011112;28;20080;-72
2023/07/19 01:28:57;;;;;;;4.90;2.88;;;;;;;29.70;31.93;97833.88;5029610;28;20049;-71
2023/07/19 01:31:23;;;;;;;4.78;2.60;;;;;;;30.49;30.72;97839.94;4991730;28;20025;-71
2023/07/19 01:33:50;;;;;;;3.38;2.50;;;;;;;31.27;29.08;97836.56;4996583;28;20048;-72
2023/07/19 01:36:18;;;;;;;5.32;2.60;;;;;;;31.67;29.46;97829.28;5005588;28;20550;-72
2023/07/19 01:38:43;;;;;;;3.95;2.47;;;;;;;32.01;28.36;97831.41;5017774;28;20068;-69
2023/07/19 01:41:08;;;;;;;3.60;2.50;;;;;;;31.82;28.56;97828.13;4999728;28;20041;-71
2023/07/19 01:43:34;;;;;;;3.65;2.33;;;;;;;31.88;27.61;97829.34;5014002;28;20033;-72
2023/07/19 01:46:00;;;;;;;5.05;2.65;;;;;;;31.70;27.82;97845.97;5012712;28;20054;-72
2023/07/19 01:48:25;;;;;;;5.30;2.63;;;;;;;31.29;28.97;97845.38;5013850;28;20064;-71
2023/07/19 01:50:50;;;;;;;4.28;2.67;;;;;;;29.61;31.59;97850.03;4997811;28;20080;-72
2023/07/19 01:53:16;;;;;;;3.45;2.53;;;;;;;29.30;33.19;97840.91;5001306;28;20044;-70
2023/07/19 01:55:41;;;;;;;5.70;2.85;;;;;;;30.49;31.24;97845.50;5018286;28;20029;-74
2023/07/19 01:58:10;;;;;;;7.43;2.90;;;;;;;31.11;31.31;97838.09;5018944;28;20041;-74
2023/07/19 02:00:35;;;;;;;3.53;2.80;;;;;;;31.57;29.48;97838.38;5019105;28;20026;-74
2023/07/19 02:03:01;;;;;;;7.55;2.38;;;;;;;31.06;29.49;97835.66;5022192;28;20029;-73
2023/07/19 02:05:26;;;;;;;5.63;2.70;;;;;;;31.27;29.11;97833.78;5017585;28;20469;-73
2023/07/19 02:07:53;;;;;;;5.22;2.88;;;;;;;31.41;28.20;97838.66;4998276;28;20040;-73
2023/07/19 02:10:19;;;;;;;4.18;2.28;;;;;;;31.54;28.72;97837.16;5015550;28;20030;-73
2023/07/19 02:12:45;;;;;;;35.75;33.10;;;;;;;31.35;29.93;97837.41;5013967;28;20037;-72
2023/07/19 02:15:11;;;;;;;8.05;3.15;;;;;;;31.98;28.24;97842.53;5002553;28;20052;-72
2023/07/19 02:17:36;;;;;;;3.83;2.30;;;;;;;31.94;28.16;97836.13;5025322;28;20504;-72
2023/07/19 02:20:02;;;;;;;6.00;2.58;;;;;;;32.19;28.21;97820.28;5002303;28;20168;-74
2023/07/19 02:22:28;;;;;;;4.55;3.05;;;;;;;31.69;28.43;97827.69;5008908;28;20079;-73
2023/07/19 02:24:53;;;;;;;4.93;2.50;;;;;;;32.14;27.60;97831.81;5001902;28;20037;-72
2023/07/19 02:27:19;;;;;;;6.78;2.50;;;;;;;31.76;28.16;97838.88;5008767;28;20033;-73
2023/07/19 02:29:44;;;;;;;5.65;2.65;;;;;;;31.46;28.75;97831.97;4985664;28;20065;-72
2023/07/19 02:32:10;;;;;;;3.88;2.38;;;;;;;30.88;29.78;97835.53;5014950;28;20049;-72
2023/07/19 02:34:37;;;;;;;4.78;2.40;;;;;;;31.54;27.67;97833.56;5017791;28;20018;-73
2023/07/19 02:37:04;;;;;;;3.65;2.22;;;;;;;31.51;28.43;97839.94;5027309;28;20105;-73
2023/07/19 02:39:30;;;;;;;5.63;2.15;;;;;;;30.74;28.99;97840.94;5034581;28;20025;-74
2023/07/19 02:41:56;;;;;;;4.60;2.22;;;;;;;29.94;30.76;97836.97;5025711;28;20056;-73
2023/07/19 02:44:22;;;;;;;4.20;2.38;;;;;;;29.45;32.14;97844.69;5034227;28;20101;-73
2023/07/19 02:46:47;;;;;;;3.40;2.45;;;;;;;28.31;34.35;97851.56;4997061;28;20038;-73
2023/07/19 02:49:13;;;;;;;3.72;2.70;;;;;;;29.65;32.77;97837.81;4985902;28;20108;-74
2023/07/19 02:51:38;;;;;;;4.53;2.70;;;;;;;30.15;32.03;97841.19;5013347;28;20042;-74
2023/07/19 02:54:04;;;;;;;4.13;2.70;;;;;;;30.66;30.96;97844.88;5001740;28;20025;-74
2023/07/19 02:56:29;;;;;;;4.13;2.63;;;;;;;30.70;30.09;97842.91;5024848;28;20040;-74
2023/07/19 02:58:54;;;;;;;5.97;2.80;;;;;;;31.05;29.33;97842.41;4996866;28;20550;-74
2023/07/19 03:01:20;;;;;;;4.00;2.20;;;;;;;31.67;28.71;97843.19;4996855;28;20041;-73
2023/07/19 03:03:45;;;;;;;3.80;2.50;;;;;;;32.01;29.13;97850.09;5014083;28;20033;-72
2023/07/19 03:06:11;;;;;;;4.43;2.55;;;;;;;32.03;29.32;97850.50;5024104;28;20026;-73
2023/07/19 03:08:37;;;;;;;4.18;2.83;;;;;;;31.71;28.84;97855.16;5012101;28;20124;-72
2023/07/19 03:11:03;;;;;;;3.63;2.50;;;;;;;31.71;29.24;97849.56;5023967;28;20050;-73
2023/07/19 03:13:28;;;;;;;5.95;2.30;;;;;;;28.92;33.04;97845.84;5000789;28;20452;-72
2023/07/19 03:15:54;;;;;;;16.60;13.63;;;;;;;29.14;34.45;97854.13;5026040;28;20041;-72
2023/07/19 03:18:19;;;;;;;904.15;414.77;;;;;;;29.60;33.91;97843.69;5012870;28;20061;-73
2023/07/19 03:20:45;;;;;;;1999.90;999.90;;;;;;;29.32;34.35;97843.31;5014051;28;20034;-73
2023/07/19 03:23:11;;;;;;;9.23;3.20;;;;;;;29.47;33.41;97844.31;5016432;28;20385;-73
2023/07/19 03:25:36;;;;;;;5.65;2.80;;;;;;;30.64;30.36;97836.13;5012669;28;20420;-73
2023/07/19 03:28:01;;;;;;;6.47;2.70;;;;;;;31.57;29.93;97830.00;4996361;28;20072;-74
2023/07/19 03:30:27;;;;;;;3.42;2.50;;;;;;;31.21;30.44;97849.28;5023695;28;20494;-74
2023/07/19 03:32:53;;;;;;;7.25;3.20;;;;;;;31.39;29.95;97833.47;5012320;28;20033;-74
2023/07/19 03:35:20;;;;;;;5.50;2.80;;;;;;;31.49;30.26;97842.28;4997792;28;20026;-72
2023/07/19 03:37:45;;;;;;;5.18;2.90;;;;;;;31.07;30.56;97848.38;5012358;28;20037;-72
2023/07/19 03:40:12;;;;;;;6.82;2.95;;;;;;;30.84;31.08;97850.56;5026820;28;20091;-71
2023/07/19 03:42:37;;;;;;;22.13;17.15;;;;;;;29.91;31.92;97854.41;5028733;28;20051;-72
2023/07/19 03:45:05;;;;;;;5.82;2.80;;;;;;;29.22;34.21;97850.31;4996026;28;20030;-71
2023/07/19 03:47:31;;;;;;;5.22;2.60;;;;;;;28.92;34.09;97849.44;4996007;28;20033;-73
2023/07/19 03:49:56;;;;;;;5.63;2.60;;;;;;;28.61;35.47;97850.50;5025733;28;20025;-73
2023/07/19 03:52:21;;;;;;;6.65;3.00;;;;;;;29.49;34.42;97853.84;5032072;28;20564;-70
2023/07/19 03:54:48;;;;;;;5.35;2.83;;;;;;;30.79;32.01;97837.81;5031696;28;20076;-70
2023/07/19 03:57:14;;;;;;;5.28;2.72;;;;;;;31.34;30.79;97846.97;4995900;28;20034;-71
2023/07/19 03:59:40;;;;;;;5.78;2.72;;;;;;;31.25;31.69;97857.66;5012086;28;20403;-71
2023/07/19 04:02:05;;;;;;;7.05;3.08;;;;;;;31.52;31.20;97863.78;5016838;28;20488;-71
2023/07/19 04:04:30;;;;;;;5.13;4.65;;;;;;;31.55;29.73;97863.03;5006673;28;20033;-72
2023/07/19 04:06:57;;;;;;;8.45;6.47;;;;;;;31.44;31.17;97862.94;5000447;28;20025;-72
2023/07/19 04:09:22;;;;;;;7.78;7.05;;;;;;;32.06;29.62;97855.31;4990538;28;20046;-72
2023/07/19 04:11:48;;;;;;;8.18;5.88;;;;;;;31.85;29.91;97864.38;5013197;28;20088;-72
2023/07/19 04:14:13;;;;;;;4.80;4.32;;;;;;;31.00;31.08;97868.59;5006437;28;20037;-71
2023/07/19 04:16:40;;;;;;;8.00;3.50;;;;;;;30.30;32.81;97862.34;5019750;28;20033;-71
2023/07/19 04:19:06;;;;;;;5.78;3.00;;;;;;;29.58;34.15;97873.81;5014996;28;20042;-71
2023/07/19 04:21:31;;;;;;;5.53;2.92;;;;;;;29.34;35.58;97868.69;5011730;28;20072;-71
2023/07/19 04:23:56;;;;;;;5.30;2.88;;;;;;;29.76;34.69;97869.28;5011264;28;20038;-73
2023/07/19 04:26:22;;;;;;;8.20;3.17;;;;;;;29.63;35.29;97870.69;5004035;28;20030;-69
2023/07/19 04:28:47;;;;;;;4.15;2.83;;;;;;;30.55;32.94;97871.78;5007544;28;20120;-69
2023/07/19 04:31:13;;;;;;;4.85;2.95;;;;;;;31.61;31.76;97878.16;5020344;28;20030;-69
2023/07/19 04:33:39;;;;;;;3.60;2.60;;;;;;;31.46;31.27;97865.38;5011117;28;20038;-69
2023/07/19 04:36:14;;;;;;;7.53;3.28;;;;;;;32.18;30.39;97866.09;5019646;28;20037;-69
2023/07/19 04:38:42;;;;;;;4.88;3.17;;;;;;;31.20;31.61;97869.94;5011612;28;20396;-70
2023/07/19 04:41:08;;;;;;;5.03;3.08;;;;;;;31.24;31.97;97873.56;5016733;28;20026;-69
2023/07/19 04:43:34;;;;;;;6.30;3.10;;;;;;;32.08;30.35;97869.63;5026435;28;20044;-72
2023/07/19 04:46:01;;;;;;;5.95;3.08;;;;;;;32.17;29.74;97870.06;5011551;28;20391;-72
2023/07/19 04:48:26;;;;;;;7.03;3.35;;;;;;;31.83;30.69;97868.72;5023504;28;20042;-73
2023/07/19 04:50:55;;;;;;;6.35;3.60;;;;;;;32.16;29.64;97868.44;5022584;28;20025;-74
2023/07/19 04:53:21;;;;;;;5.30;3.40;;;;;;;31.09;32.83;97874.63;5014163;28;20491;-73
2023/07/19 04:55:50;;;;;;;5.55;3.50;;;;;;;31.68;31.99;97861.47;5011330;28;20040;-69
2023/07/19 04:58:16;;;;;;;5.68;3.30;;;;;;;31.54;32.19;97864.19;5007905;28;20069;-69
2023/07/19 05:00:41;;;;;;;6.30;3.28;;;;;;;32.01;31.94;97870.41;5022078;28;20056;-70
2023/07/19 05:03:07;;;;;;;4.30;3.42;;;;;;;30.75;34.24;97865.63;5027147;28;20041;-70
2023/07/19 05:05:33;;;;;;;6.70;3.22;;;;;;;30.26;35.60;97853.19;5014193;28;20549;-70
2023/07/19 05:07:59;;;;;;;6.35;3.35;;;;;;;32.01;31.77;97852.91;5023963;28;20381;-69
2023/07/19 05:10:24;;;;;;;5.03;3.38;;;;;;;31.92;31.06;97856.03;5011616;28;20045;-70
2023/07/19 05:12:50;;;;;;;7.00;3.70;;;;;;;32.01;31.28;97852.91;5010608;28;20151;-70
2023/07/19 05:15:15;;;;;;;4.88;3.50;;;;;;;31.44;31.23;97851.03;5020143;28;20452;-71
2023/07/19 05:17:41;;;;;;;6.88;3.55;;;;;;;31.56;30.38;97847.91;5013318;28;20040;-70
2023/07/19 05:20:07;;;;;;;6.78;3.40;;;;;;;30.63;31.55;97851.19;5027168;28;20117;-70
2023/07/19 05:22:33;;;;;;;5.53;3.30;;;;;;;30.44;32.64;97854.19;5026298;28;20029;-69
2023/07/19 05:24:59;;;;;;;4.38;3.03;;;;;;;30.88;32.14;97849.44;5019934;28;20025;-70
2023/07/19 05:27:24;;;;;;;6.68;3.50;;;;;;;30.82;31.82;97859.31;5031922;28;20544;-74
2023/07/19 05:29:50;;;;;;;6.38;3.28;;;;;;;30.21;33.00;97859.09;5030526;28;20452;-70
2023/07/19 05:32:15;;;;;;;7.13;3.50;;;;;;;30.29;33.13;97852.44;5026710;28;20034;-69
2023/07/19 05:34:41;;;;;;;5.38;3.38;;;;;;;30.67;32.80;97846.44;5010426;28;20025;-70
2023/07/19 05:37:07;;;;;;;6.53;3.65;;;;;;;30.78;32.20;97848.13;5026318;28;20040;-70
2023/07/19 05:39:35;;;;;;;6.82;3.78;;;;;;;32.05;31.92;97846.13;5031454;28;20025;-71
2023/07/19 05:42:01;;;;;;;6.53;3.65;;;;;;;30.58;32.68;97851.53;5022599;28;20049;-70
2023/07/19 05:44:26;;;;;;;7.65;3.50;;;;;;;30.39;33.24;97840.63;5013382;28;20029;-71
2023/07/19 05:46:53;;;;;;;5.82;3.67;;;;;;;32.17;30.23;97844.97;5022724;28;20456;-70
2023/07/19 05:49:18;;;;;;;5.80;3.10;;;;;;;31.48;31.09;97846.28;5010467;28;20559;-70
2023/07/19 05:51:44;;;;;;;5.97;3.00;;;;;;;32.79;29.12;97841.88;5011697;28;20521;-70
2023/07/19 05:54:10;;;;;;;7.25;3.50;;;;;;;32.04;29.61;97846.53;5011424;28;20029;-71
2023/07/19 05:56:36;;;;;;;8.65;3.20;;;;;;;32.00;29.47;97845.72;4994013;28;20040;-72
2023/07/19 05:59:01;;;;;;;4.65;2.78;;;;;;;31.86;29.46;97845.63;5011640;28;20107;-72
2023/07/19 06:01:26;;;;;;;5.55;2.80;;;;;;;32.28;28.42;97843.00;5014149;28;20048;-73
2023/07/19 06:03:52;;;;;;;6.25;3.17;;;;;;;33.50;27.33;97832.22;5019097;28;20091;-72
2023/07/19 06:06:18;;;;;;;7.38;3.50;;;;;;;33.38;26.71;97833.44;5029199;28;20037;-72
2023/07/19 06:08:43;;;;;;;8.40;3.55;;;;;;;32.02;27.99;97843.34;5020187;28;20026;-73
2023/07/19 06:11:08;;;;;;;363.67;33.50;;;;;;;33.33;27.62;97827.47;5029305;28;20045;-72
2023/07/19 06:13:34;;;;;;;11.52;3.75;;;;;;;33.92;26.49;97826.47;5018780;28;20026;-73
2023/07/19 06:15:59;;;;;;;425.85;50.17;;;;;;;33.48;26.81;97829.03;4995534;28;20054;-72
2023/07/19 06:18:25;;;;;;;1237.85;123.60;;;;;;;32.75;27.90;97830.72;5026706;28;20396;-71
2023/07/19 06:20:50;;;;;;;6.97;2.90;;;;;;;31.92;28.57;97844.88;5005227;28;20124;-71
2023/07/19 06:23:15;;;;;;;6.97;3.03;;;;;;;32.28;27.96;97831.84;5019441;28;20022;-73
2023/07/19 06:25:45;;;;;;;6.22;3.30;;;;;;;32.85;28.78;97829.13;5016332;28;20117;-74
2023/07/19 06:28:10;;;;;;;4.72;3.10;;;;;;;32.05;28.64;97831.41;5003435;28;20492;-71
2023/07/19 06:30:36;;;;;;;5.68;3.38;;;;;;;31.94;29.13;97836.13;5023904;28;20097;-74
2023/07/19 06:33:02;;;;;;;4.82;3.10;;;;;;;31.02;29.65;97830.06;5011710;28;20045;-74
2023/07/19 06:35:28;;;;;;;5.63;2.95;;;;;;;31.87;28.25;97833.31;5015080;28;20424;-75
2023/07/19 06:37:53;;;;;;;5.30;3.17;;;;;;;32.98;27.44;97824.72;5044755;28;20099;-74
2023/07/19 06:40:19;;;;;;;7.43;3.13;;;;;;;31.58;28.91;97834.41;5012692;28;20033;-74
2023/07/19 06:42:44;;;;;;;5.18;3.30;;;;;;;31.71;29.10;97832.84;5009612;28;20164;-74
2023/07/19 06:45:10;;;;;;;5.03;2.88;;;;;;;33.87;26.31;97829.69;5012925;28;20029;-76
2023/07/19 06:47:36;;;;;;;4.47;2.70;;;;;;;32.72;27.75;97835.09;4985983;28;20029;-75
2023/07/19 06:50:01;;;;;;;6.25;3.20;;;;;;;33.62;27.14;97833.78;5028318;28;20025;-74
2023/07/19 06:52:27;;;;;;;11.73;3.35;;;;;;;31.69;29.26;97846.38;5034357;28;20033;-76
2023/07/19 06:54:52;;;;;;;5.20;3.08;;;;;;;32.32;29.99;97841.03;5013112;28;20116;-74
2023/07/19 06:57:20;;;;;;;7.82;3.42;;;;;;;32.22;29.60;97846.56;5017843;28;20030;-74
2023/07/19 06:59:45;;;;;;;6.90;3.35;;;;;;;33.69;27.07;97844.94;5024509;28;20022;-74
2023/07/19 07:02:10;;;;;;;9.25;3.30;;;;;;;31.28;30.00;97849.31;5022384;28;20176;-74
2023/07/19 07:04:36;;;;;;;6.30;3.00;;;;;;;32.93;28.23;97844.66;5033798;28;20040;-74
2023/07/19 07:07:01;;;;;;;5.93;3.42;;;;;;;33.76;27.50;97834.53;5032879;28;20175;-75
2023/07/19 07:09:27;;;;;;;9.07;3.28;;;;;;;33.33;28.33;97838.63;4997355;28;20026;-71
2023/07/19 07:11:53;;;;;;;5.95;3.00;;;;;;;33.58;27.30;97842.19;5020883;28;20693;-71
2023/07/19 07:14:18;;;;;;;8.02;3.45;;;;;;;33.72;27.57;97833.75;5019256;28;20076;-71
2023/07/19 07:16:43;;;;;;;10.80;4.05;;;;;;;34.54;25.98;97829.31;5034004;28;20036;-71
2023/07/19 07:19:10;;;;;;;5.65;3.40;;;;;;;34.58;26.15;97829.31;5033849;28;20022;-71
2023/07/19 07:21:35;;;;;;;6.30;3.35;;;;;;;35.16;25.03;97826.41;5025602;28;20052;-72
2023/07/19 07:24:01;;;;;;;7.18;3.17;;;;;;;34.18;26.02;97843.94;5008066;28;20029;-71
2023/07/19 07:26:27;;;;;;;6.18;3.45;;;;;;;33.12;27.71;97833.09;5034071;28;20103;-71
2023/07/19 07:28:52;;;;;;;6.63;3.63;;;;;;;34.10;26.93;97834.00;5032628;28;20121;-71
2023/07/19 07:31:17;;;;;;;6.38;3.50;;;;;;;35.21;25.49;97834.38;5033793;28;20504;-71
2023/07/19 07:33:43;;;;;;;7.15;3.33;;;;;;;35.12;24.82;97836.84;5018547;28;20119;-71
2023/07/19 07:36:08;;;;;;;5.03;3.60;;;;;;;34.58;25.60;97834.91;5000600;28;20049;-71
2023/07/19 07:38:34;;;;;;;7.45;3.45;;;;;;;34.86;26.32;97834.66;5013842;28;20045;-71
2023/07/19 07:41:00;;;;;;;13.60;4.07;;;;;;;34.11;26.21;97827.19;5012709;28;20113;-71
2023/07/19 07:43:26;;;;;;;25.50;5.45;;;;;;;35.00;24.72;97828.94;5032282;28;20468;-71
2023/07/19 07:45:54;;;;;;;7.50;2.92;;;;;;;34.62;25.37;97824.47;5033978;28;20041;-71
2023/07/19 07:48:23;;;;;;;35.78;5.72;;;;;;;37.17;22.48;97820.03;5016680;28;20079;-71
2023/07/19 07:50:52;;;;;;;7.60;3.63;;;;;;;36.71;23.44;97813.16;5015652;28;20033;-71
2023/07/19 07:53:18;;;;;;;4.78;3.28;;;;;;;36.58;23.52;97820.59;5033170;28;20037;-71
2023/07/19 07:55:44;;;;;;;4.82;3.15;;;;;;;33.37;27.28;97819.88;5015686;28;20403;-71
2023/07/19 07:58:10;;;;;;;8.38;3.88;;;;;;;34.91;25.44;97811.84;5017074;28;20029;-71
2023/07/19 08:00:35;;;;;;;7.10;3.65;;;;;;;34.64;26.56;97819.25;5017220;28;20042;-71
2023/07/19 08:03:01;;;;;;;8.95;3.67;;;;;;;36.03;24.52;97820.22;5028172;28;20029;-71
2023/07/19 08:05:27;;;;;;;5.88;3.42;;;;;;;35.92;24.87;97816.72;5023149;28;20038;-71
2023/07/19 08:07:52;;;;;;;526.38;53.95;;;;;;;32.81;28.81;97831.94;5023915;28;20389;-71
2023/07/19 08:10:17;;;;;;;7.75;4.28;;;;;;;33.41;28.27;97824.25;5013223;28;20140;-71
2023/07/19 08:12:43;;;;;;;4.53;1.90;;;;;;;33.94;27.49;97818.47;5011788;28;20029;-71
2023/07/19 08:15:08;;;;;;;1999.90;999.90;;;;;;;33.65;28.02;97817.03;4979553;28;20112;-71
2023/07/19 08:17:34;;;;;;;2.03;1.42;;;;;;;33.80;27.79;97818.53;5027073;28;20025;-71
2023/07/19 08:19:59;;;;;;;2.90;2.00;;;;;;;33.57;27.53;97821.03;5032833;28;20411;-71
2023/07/19 08:22:26;;;;;;;4.05;2.03;;;;;;;33.56;27.92;97827.81;5018282;28;20034;-71
2023/07/19 08:24:53;;;;;;;5.18;1.90;;;;;;;35.20;26.44;97815.97;5032224;28;20029;-71
2023/07/19 08:27:18;;;;;;;5.10;2.78;;;;;;;33.90;27.96;97823.28;5018126;28;20511;-71
2023/07/19 08:29:44;;;;;;;3.47;2.47;;;;;;;33.85;27.64;97823.72;5022720;28;20037;-71
2023/07/19 08:32:09;;;;;;;2.40;1.92;;;;;;;33.95;27.59;97825.66;5028127;28;20075;-71
2023/07/19 08:34:34;;;;;;;3.05;1.88;;;;;;;35.53;25.67;97822.81;5022438;28;20038;-71
2023/07/19 08:37:00;;;;;;;2.72;2.08;;;;;;;33.42;28.32;97825.84;5027779;28;20018;-71
2023/07/19 08:39:27;;;;;;;5.07;2.00;;;;;;;34.14;27.39;97831.97;5023228;28;20575;-71
2023/07/19 08:41:52;;;;;;;7.65;2.22;;;;;;;35.02;27.09;97825.75;5019019;28;20028;-70
2023/07/19 08:44:19;;;;;;;1.27;1.10;;;;;;;34.65;27.01;97818.84;5010976;28;20038;-71
2023/07/19 08:46:45;;;;;;;2.33;1.20;;;;;;;34.17;27.46;97825.56;4994886;28;20104;-70
2023/07/19 08:49:10;;;;;;;4.07;1.65;;;;;;;33.87;26.98;97824.09;5016103;28;20411;-70
2023/07/19 08:51:38;;;;;;;6.70;2.80;;;;;;;33.84;27.42;97830.50;5027020;28;20029;-70
2023/07/19 08:54:03;;;;;;;5.85;4.03;;;;;;;32.92;28.63;97832.72;5022841;28;20495;-70
2023/07/19 08:56:31;;;;;;;4.32;2.35;;;;;;;34.66;26.81;97822.44;5026868;28;20029;-70
2023/07/19 08:58:56;;;;;;;3.72;2.03;;;;;;;34.17;27.64;97831.16;5022835;28;20041;-71
2023/07/19 09:01:21;;;;;;;6.03;3.42;;;;;;;34.26;26.92;97825.91;5022495;28;20036;-70
2023/07/19 09:03:47;;;;;;;6.60;3.45;;;;;;;33.93;27.51;97830.88;5011996;28;20053;-70
2023/07/19 09:06:22;;;;;;;5.30;3.10;;;;;;;35.02;26.66;97826.53;5011514;28;20028;-70
2023/07/19 09:08:47;;;;;;;8.32;4.80;;;;;;;34.11;26.97;97830.00;5016747;28;20045;-70
2023/07/19 09:11:19;;;;;;;7.60;2.90;;;;;;;35.23;26.50;97826.34;5012151;28;20040;-70
2023/07/19 09:13:52;;;;;;;172.05;154.75;;;;;;;36.08;25.29;97819.75;5017454;28;20048;-70
2023/07/19 09:16:25;;;;;;;7.43;2.97;;;;;;;36.86;24.72;97815.72;5044688;28;20522;-70
2023/07/19 09:18:50;;;;;;;2.47;1.52;;;;;;;34.02;27.30;97814.44;5018894;28;20049;-70
2023/07/19 09:21:16;;;;;;;1.88;1.50;;;;;;;34.81;27.03;97804.31;5030040;28;20029;-70
2023/07/19 09:23:41;;;;;;;5.65;2.38;;;;;;;35.53;25.93;97805.22;5018901;28;20034;-70
2023/07/19 09:26:08;;;;;;;6.78;2.33;;;;;;;34.73;26.73;97803.59;5029672;28;20067;-70
2023/07/19 09:28:34;;;;;;;6.78;3.78;;;;;;;35.58;25.68;97790.75;5031565;28;20475;-71
2023/07/19 09:31:02;;;;;;;8.90;4.25;;;;;;;35.68;25.41;97796.22;5013867;28;20033;-70
2023/07/19 09:33:28;;;;;;;33.30;31.13;;;;;;;36.94;23.89;97786.34;5017896;28;20034;-70
2023/07/19 09:35:54;;;;;;;349.60;76.90;;;;;;;36.50;25.29;97785.44;5025014;28;20022;-71
2023/07/19 09:38:21;;;;;;;2.53;1.98;;;;;;;36.41;25.10;97790.78;5019141;28;20113;-70
2023/07/19 09:40:47;;;;;;;3.72;2.55;;;;;;;36.92;24.40;97778.34;5017273;28;20028;-70
2023/07/19 09:43:15;;;;;;;4.10;2.50;;;;;;;35.02;26.67;97787.34;5026244;28;20129;-70
2023/07/19 09:45:43;;;;;;;7.90;3.25;;;;;;;35.61;25.86;97778.69;5009919;28;20034;-70
2023/07/19 09:48:08;;;;;;;9.27;3.10;;;;;;;35.94;25.72;97780.66;5022851;28;20041;-71
2023/07/19 09:50:35;;;;;;;6.40;2.83;;;;;;;36.08;25.21;97774.09;5013270;28;20450;-71
2023/07/19 09:53:01;;;;;;;4.53;2.75;;;;;;;35.27;26.92;97776.66;5016571;28;20087;-70
2023/07/19 09:55:28;;;;;;;5.07;3.00;;;;;;;35.92;25.72;97771.84;5026360;28;20076;-70
2023/07/19 09:57:55;;;;;;;4.82;2.97;;;;;;;35.92;25.64;97774.66;4999932;28;20454;-70
2023/07/19 10:00:21;;;;;;;19.45;3.53;;;;;;;34.82;27.29;97772.34;5013284;28;20043;-71
2023/07/19 10:02:46;;;;;;;5.60;2.97;;;;;;;33.82;27.68;97779.81;5042614;28;20416;-71
2023/07/19 10:05:11;;;;;;;5.28;3.03;;;;;;;34.97;26.22;97772.97;5026391;28;20033;-71
2023/07/19 10:07:37;;;;;;;8.00;3.17;;;;;;;37.29;23.69;97757.59;5020026;28;20410;-71
2023/07/19 10:10:04;;;;;;;5.15;2.88;;;;;;;36.44;23.92;97764.69;5030890;28;20036;-71
2023/07/19 10:12:31;;;;;;;7.68;2.75;;;;;;;34.92;26.37;97756.63;5009749;28;20556;-71
2023/07/19 10:15:07;;;;;;;7.40;2.78;;;;;;;35.78;25.18;97758.06;5013627;28;20377;-71
2023/07/19 10:17:41;;;;;;;6.95;3.22;;;;;;;36.56;23.47;97750.06;5026107;28;20056;-71
2023/07/19 10:20:07;;;;;;;4.75;2.25;;;;;;;36.74;23.61;97750.56;5034637;28;20044;-71
2023/07/19 10:22:51;;;;;;;10.70;3.33;;;;;;;37.98;22.87;97748.09;5034237;28;20029;-71
2023/07/19 10:25:22;;;;;;;4.85;2.72;;;;;;;38.33;21.73;97746.50;5034387;28;20044;-71
2023/07/19 10:28:02;;;;;;;6.55;3.28;;;;;;;36.67;23.60;97745.06;5013806;28;20038;-71
2023/07/19 10:30:50;;;;;;;10.25;2.72;;;;;;;35.28;24.36;97764.25;5024326;28;20113;-71
2023/07/19 10:33:28;;;;;;;2.80;2.13;;;;;;;36.00;23.07;97748.16;5013490;28;20057;-71
2023/07/19 10:36:14;;;;;;;4.10;2.38;;;;;;;36.18;23.79;97757.06;5014649;28;20049;-70
2023/07/19 10:38:39;;;;;;;5.00;2.63;;;;;;;34.80;24.35;97746.75;5028963;28;20049;-70
2023/07/19 10:41:07;;;;;;;4.35;2.60;;;;;;;36.35;24.13;97747.59;5033420;28;20039;-70
2023/07/19 10:43:35;;;;;;;7.85;2.20;;;;;;;37.40;22.94;97741.31;5029221;28;20061;-70
2023/07/19 10:46:03;;;;;;;4.50;2.15;;;;;;;36.03;23.15;97744.50;5014126;28;20026;-70
2023/07/19 10:48:38;;;;;;;3.20;2.13;;;;;;;37.30;21.32;97736.66;5028303;28;20047;-70
2023/07/19 10:51:05;;;;;;;7.35;2.67;;;;;;;35.99;23.59;97754.97;5022328;28;20069;-70
2023/07/19 10:53:57;;;;;;;3.33;2.30;;;;;;;36.22;22.71;97752.22;5046499;28;20022;-70
2023/07/19 10:56:23;;;;;;;2.50;1.65;;;;;;;34.50;22.97;97749.41;5016852;28;20035;-70
2023/07/19 10:58:48;;;;;;;3.97;2.40;;;;;;;36.99;20.89;97743.72;5032430;28;20025;-70
2023/07/19 11:01:17;;;;;;;2.08;1.20;;;;;;;37.03;20.35;97736.03;5032696;28;20045;-70
2023/07/19 11:03:46;;;;;;;6.60;1.98;;;;;;;36.83;21.43;97743.59;5033886;28;20368;-70
2023/07/19 11:06:12;;;;;;;4.10;1.77;;;;;;;37.94;20.93;97739.75;5019178;28;20116;-70
2023/07/19 11:08:38;;;;;;;3.03;2.00;;;;;;;36.23;22.11;97741.78;5024166;28;20112;-70
2023/07/19 11:11:03;;;;;;;1.90;1.40;;;;;;;38.49;19.06;97732.41;5028674;28;20059;-70
2023/07/19 11:13:30;;;;;;;2.72;1.50;;;;;;;36.08;22.62;97741.22;5033217;28;20095;-70
2023/07/19 11:15:57;;;;;;;2.67;1.33;;;;;;;35.59;22.63;97741.91;5019217;28;20030;-70
2023/07/19 11:18:28;;;;;;;4.00;1.73;;;;;;;36.84;21.31;97742.38;5023100;28;20105;-70
2023/07/19 11:20:57;;;;;;;4.63;1.80;;;;;;;37.62;20.94;97731.22;5026269;28;20065;-70
2023/07/19 11:23:27;;;;;;;3.10;1.90;;;;;;;38.63;19.72;97726.44;5020955;28;20080;-70
2023/07/19 11:26:05;;;;;;;2.72;1.77;;;;;;;38.34;19.58;97729.19;5023776;28;20056;-70
2023/07/19 11:28:44;;;;;;;1.15;1.05;;;;;;;37.71;20.86;97728.59;5027112;28;20489;-70